Time;durP1;ratioP1;P1;durP2;ratioP2;P2;SDS_P1;SDS_P2;PMS_P1;PMS_P2;Temp;Humidity;BMP_temperature;BMP_pressure;BME280_temperature;BME280_humidity;BME280_pressure;Samples;Min_cycle;Max_cycle;Signal;HPM_P1;HPM_P2
2021/08/14 00:00:31;;;;;;;6.65;5.15;;;;;;;11.30;99.91;93986.84;1770257;79;21058;-89
2021/08/14 00:02:58;;;;;;;6.53;4.70;;;;;;;11.36;100.00;93982.59;1752605;80;20968;-89
2021/08/14 00:05:24;;;;;;;7.67;4.62;;;;;;;11.45;99.67;93981.43;1809819;76;21117;-88
2021/08/14 00:07:51;;;;;;;8.05;5.22;;;;;;;11.48;98.84;93980.08;1836625;75;21117;-87
2021/08/14 00:10:18;;;;;;;9.33;5.35;;;;;;;11.48;98.78;93982.02;1830316;76;20970;-90
2021/08/14 00:12:44;;;;;;;8.00;4.40;;;;;;;11.50;98.25;93981.04;1802677;77;21344;-88
2021/08/14 00:15:12;;;;;;;6.20;4.40;;;;;;;11.54;97.69;93980.45;1803059;77;21109;-89
2021/08/14 00:17:40;;;;;;;4.97;4.42;;;;;;;11.54;97.32;93981.82;1834201;76;21018;-89
2021/08/14 00:20:07;;;;;;;7.20;4.78;;;;;;;11.50;97.30;93981.81;1817718;76;21077;-88
2021/08/14 00:22:36;;;;;;;5.33;4.35;;;;;;;11.38;97.29;93981.60;1795885;78;21532;-88
2021/08/14 00:25:04;;;;;;;7.65;4.67;;;;;;;11.28;97.77;93984.30;1797037;77;21096;-86
2021/08/14 00:27:31;;;;;;;6.72;4.90;;;;;;;11.20;98.39;93978.05;1797976;77;21112;-89
2021/08/14 00:29:59;;;;;;;8.73;5.00;;;;;;;11.17;98.79;93979.63;1758835;78;21133;-86
2021/08/14 00:32:26;;;;;;;5.53;4.45;;;;;;;11.21;99.01;93971.47;1801134;77;21081;-85
2021/08/14 00:34:52;;;;;;;5.80;4.37;;;;;;;11.25;98.96;93975.56;1783059;78;21612;-89
2021/08/14 00:37:19;;;;;;;7.37;5.03;;;;;;;11.26;98.58;93962.91;1774814;78;21201;-87
2021/08/14 00:39:46;;;;;;;7.30;4.90;;;;;;;11.19;98.37;93967.75;1759707;79;21544;-87
2021/08/14 00:42:14;;;;;;;6.45;4.50;;;;;;;11.16;98.47;93965.80;1808692;77;21082;-88
2021/08/14 00:44:41;;;;;;;5.85;4.53;;;;;;;11.14;98.46;93961.92;1783672;78;21327;-88
2021/08/14 00:47:07;;;;;;;8.53;4.55;;;;;;;11.09;98.37;93965.00;1801100;77;21002;-88
2021/08/14 00:49:35;;;;;;;9.95;4.75;;;;;;;11.04;98.64;93958.00;1825866;76;21031;-88
2021/08/14 00:52:02;;;;;;;7.10;4.20;;;;;;;11.04;98.67;93959.94;1860656;74;21068;-88
2021/08/14 00:54:30;;;;;;;8.60;4.87;;;;;;;11.03;98.68;93966.55;1794365;77;21581;-86
2021/08/14 00:56:57;;;;;;;6.45;4.40;;;;;;;11.01;98.68;93968.28;1781071;78;21883;-88
2021/08/14 00:59:28;;;;;;;8.18;4.72;;;;;;;11.02;98.86;93970.42;1761861;79;21053;-88
2021/08/14 01:01:56;;;;;;;6.97;4.72;;;;;;;11.04;98.67;93966.75;1776521;78;21082;-88
2021/08/14 01:04:23;;;;;;;6.95;4.78;;;;;;;11.08;98.96;93965.59;1800076;78;21565;-87
2021/08/14 01:06:50;;;;;;;7.72;4.40;;;;;;;11.15;98.67;93971.64;1808930;76;20983;-88
2021/08/14 01:09:17;;;;;;;7.00;4.80;;;;;;;11.18;98.11;93962.13;1796335;75;21660;-88
2021/08/14 01:11:44;;;;;;;6.40;4.62;;;;;;;11.11;97.53;93958.02;1851081;74;21399;-88
2021/08/14 01:14:13;;;;;;;7.10;5.03;;;;;;;11.01;97.39;93957.98;1806998;77;21061;-88
2021/08/14 01:16:42;;;;;;;7.80;4.60;;;;;;;10.88;97.85;93956.20;1827459;77;21078;-88
2021/08/14 01:19:09;;;;;;;9.13;5.33;;;;;;;10.84;97.99;93948.03;1825665;77;21009;-88
2021/08/14 01:21:35;;;;;;;7.53;5.03;;;;;;;10.83;98.02;93954.64;1884904;74;21127;-88
2021/08/14 01:24:03;;;;;;;5.60;4.70;;;;;;;10.85;98.30;93947.45;1870854;74;21060;-88
2021/08/14 01:26:30;;;;;;;10.15;5.10;;;;;;;10.89;98.40;93949.59;1847432;75;21116;-88
2021/08/14 01:28:56;;;;;;;8.30;4.35;;;;;;;10.93;98.22;93936.78;1822881;76;21077;-88
2021/08/14 01:31:22;;;;;;;8.15;4.60;;;;;;;10.92;97.65;93936.00;1798332;75;21077;-88
2021/08/14 01:33:49;;;;;;;7.40;4.80;;;;;;;10.88;97.63;93941.23;1880832;75;21572;-88
2021/08/14 01:36:16;;;;;;;6.70;5.20;;;;;;;10.83;97.73;93938.31;1875723;74;21489;-88
2021/08/14 01:38:54;;;;;;;9.03;6.67;;;;;;;10.79;97.90;93933.42;1876936;75;21516;-87
2021/08/14 01:41:21;;;;;;;9.13;6.80;;;;;;;10.79;97.96;93932.06;1868896;74;21021;-88
2021/08/14 01:44:05;;;;;;;10.65;7.87;;;;;;;10.74;97.91;93932.44;1838719;75;21371;-88
2021/08/14 01:46:39;;;;;;;13.55;8.20;;;;;;;10.70;97.70;93939.22;1872782;74;21040;-86
2021/08/14 01:49:05;;;;;;;9.73;6.87;;;;;;;10.64;97.76;93934.53;1797719;76;21046;-88
2021/08/14 01:51:31;;;;;;;10.60;7.50;;;;;;;10.61;97.89;93938.04;1829862;74;21046;-88
2021/08/14 01:53:59;;;;;;;8.53;6.90;;;;;;;10.57;98.12;93939.94;1856688;75;21054;-88
2021/08/14 01:56:27;;;;;;;11.12;7.35;;;;;;;10.54;98.24;93939.36;1872487;74;21030;-87
2021/08/14 01:58:55;;;;;;;9.53;7.50;;;;;;;10.51;98.51;93949.05;1866068;74;21731;-88
2021/08/14 02:01:23;;;;;;;11.70;6.83;;;;;;;10.50;98.78;93952.94;1793887;77;21477;-88
2021/08/14 02:03:50;;;;;;;11.05;6.55;;;;;;;10.52;98.91;93948.47;1874606;74;21131;-88
2021/08/14 02:06:17;;;;;;;6.35;5.75;;;;;;;10.52;98.62;93943.03;1871834;75;21528;-88
2021/08/14 02:08:44;;;;;;;10.50;7.65;;;;;;;10.48;98.24;93948.45;1876456;74;21049;-87
2021/08/14 02:11:13;;;;;;;8.83;6.60;;;;;;;10.43;98.18;93940.09;1870134;74;21085;-87
2021/08/14 02:13:42;;;;;;;9.85;6.42;;;;;;;10.43;98.08;93945.52;1804202;77;21077;-87
2021/08/14 02:16:09;;;;;;;12.65;6.65;;;;;;;10.42;98.35;93943.97;1823834;76;21077;-88
2021/08/14 02:18:35;;;;;;;9.33;7.20;;;;;;;10.40;98.30;93945.50;1868265;75;20998;-88
2021/08/14 02:21:02;;;;;;;8.08;6.22;;;;;;;10.37;98.46;93938.10;1884510;74;21026;-89
2021/08/14 02:23:29;;;;;;;9.38;6.72;;;;;;;10.38;98.26;93939.66;1817476;76;21419;-89
2021/08/14 02:25:55;;;;;;;9.33;5.80;;;;;;;10.35;98.03;93939.86;1735188;81;21224;-89
2021/08/14 02:28:22;;;;;;;7.20;5.95;;;;;;;10.33;98.12;93943.52;1788379;79;21046;-88
2021/08/14 02:30:48;;;;;;;6.97;5.15;;;;;;;10.33;98.05;93937.31;1873094;74;21033;-87
2021/08/14 02:33:15;;;;;;;6.50;5.33;;;;;;;10.31;97.74;93939.64;1825955;74;21046;-88
2021/08/14 02:35:41;;;;;;;8.05;4.72;;;;;;;10.22;97.79;93938.58;1756868;78;21910;-87
2021/08/14 02:38:07;;;;;;;6.10;5.12;;;;;;;10.09;98.14;93933.27;1785240;77;21069;-88
2021/08/14 02:40:35;;;;;;;8.63;5.37;;;;;;;10.01;98.96;93939.23;1871593;75;21086;-86
2021/08/14 02:43:03;;;;;;;8.23;5.28;;;;;;;10.01;99.22;93945.26;1801173;77;21077;-88
2021/08/14 02:45:31;;;;;;;6.75;5.35;;;;;;;9.98;99.48;93939.99;1808391;77;21054;-87
2021/08/14 02:48:00;;;;;;;8.83;5.22;;;;;;;9.97;99.91;93943.30;1801137;76;21626;-88
2021/08/14 02:50:27;;;;;;;6.62;5.45;;;;;;;10.02;100.00;93940.02;1809256;77;21528;-88
2021/08/14 02:52:56;;;;;;;8.05;4.87;;;;;;;10.04;100.00;93937.69;1791480;77;21079;-88
2021/08/14 02:55:28;;;;;;;6.80;5.00;;;;;;;10.05;99.57;93946.06;1827288;76;21046;-88
2021/08/14 02:57:56;;;;;;;7.03;5.72;;;;;;;10.05;99.10;93949.55;1840767;75;21069;-89
2021/08/14 03:00:22;;;;;;;5.67;4.85;;;;;;;10.01;98.57;93949.33;1831614;77;21089;-88
2021/08/14 03:02:49;;;;;;;6.62;5.40;;;;;;;9.96;98.72;93953.94;1799785;76;21141;-89
2021/08/14 03:05:16;;;;;;;8.45;6.92;;;;;;;9.90;98.85;93950.61;1764186;78;21548;-89
2021/08/14 03:07:43;;;;;;;7.60;6.15;;;;;;;9.87;99.21;93952.14;1793848;78;21237;-88
2021/08/14 03:10:10;;;;;;;8.18;7.10;;;;;;;9.86;99.30;93948.45;1831787;75;21195;-89
2021/08/14 03:12:38;;;;;;;10.43;7.70;;;;;;;9.83;99.26;93948.62;1798886;77;20992;-87
2021/08/14 03:15:06;;;;;;;10.98;6.80;;;;;;;9.78;99.11;93954.41;1816064;77;21037;-89
2021/08/14 03:17:32;;;;;;;7.53;6.00;;;;;;;9.76;99.14;93951.86;1846186;75;21480;-89
2021/08/14 03:20:02;;;;;;;6.65;5.95;;;;;;;9.71;98.87;93953.00;1835769;77;21041;-89
2021/08/14 03:22:29;;;;;;;7.67;5.40;;;;;;;9.69;98.66;93959.37;1867457;74;21033;-89
2021/08/14 03:24:57;;;;;;;6.62;5.72;;;;;;;9.68;98.86;93957.23;1868748;75;21681;-90
2021/08/14 03:27:23;;;;;;;11.25;6.70;;;;;;;9.67;99.30;93954.91;1875890;74;21057;-89
2021/08/14 03:29:50;;;;;;;11.30;7.25;;;;;;;9.64;99.70;93957.78;1883808;74;21084;-89
2021/08/14 03:32:17;;;;;;;8.45;5.60;;;;;;;9.63;100.00;93951.38;1865594;74;21062;-86
2021/08/14 03:34:43;;;;;;;7.53;6.42;;;;;;;9.61;100.00;93949.03;1800606;77;21061;-89
2021/08/14 03:37:09;;;;;;;8.08;6.08;;;;;;;9.58;99.87;93944.34;1805272;78;21107;-89
2021/08/14 03:39:36;;;;;;;7.85;6.80;;;;;;;9.55;100.00;93952.45;1801747;78;21062;-88
2021/08/14 03:42:04;;;;;;;7.35;5.17;;;;;;;9.53;100.00;93949.35;1792564;77;21066;-89
2021/08/14 03:44:30;;;;;;;7.53;5.40;;;;;;;9.51;100.00;93957.08;1779798;79;21077;-88
2021/08/14 03:46:56;;;;;;;7.03;5.65;;;;;;;9.48;100.00;93956.69;1769088;79;21700;-89
2021/08/14 03:49:25;;;;;;;6.60;5.33;;;;;;;9.48;100.00;93959.98;1786518;78;21558;-88
2021/08/14 03:51:54;;;;;;;6.97;5.72;;;;;;;9.45;100.00;93960.73;1799479;78;21030;-88
2021/08/14 03:54:20;;;;;;;7.67;5.65;;;;;;;9.44;100.00;93955.88;1834048;75;21014;-90
2021/08/14 03:56:49;;;;;;;11.12;7.05;;;;;;;9.43;100.00;93961.66;1873392;75;21054;-88
2021/08/14 03:59:15;;;;;;;11.70;6.95;;;;;;;9.43;100.00;93970.59;1866679;75;21060;-87
2021/08/14 04:01:42;;;;;;;6.83;5.72;;;;;;;9.44;100.00;93970.81;1807368;77;21397;-88
2021/08/14 04:04:09;;;;;;;6.08;5.47;;;;;;;9.44;100.00;93965.94;1871456;75;21029;-89
2021/08/14 04:06:35;;;;;;;9.50;5.90;;;;;;;9.44;100.00;93970.00;1890242;74;21069;-88
2021/08/14 04:09:02;;;;;;;6.83;5.90;;;;;;;9.45;100.00;93970.23;1858571;74;21054;-89
2021/08/14 04:11:28;;;;;;;7.42;5.97;;;;;;;9.44;100.00;93972.17;1812926;75;21069;-89
2021/08/14 04:13:56;;;;;;;7.33;6.20;;;;;;;9.45;100.00;93972.36;1882101;74;21586;-90
2021/08/14 04:16:22;;;;;;;8.80;7.35;;;;;;;9.47;100.00;93970.63;1875274;74;21034;-89
2021/08/14 04:18:51;;;;;;;7.00;5.95;;;;;;;9.51;100.00;93975.50;1873979;74;21132;-89
2021/08/14 04:21:18;;;;;;;8.78;6.70;;;;;;;9.53;100.00;93973.20;1851909;74;21065;-88
2021/08/14 04:23:46;;;;;;;8.05;6.70;;;;;;;9.53;100.00;93969.72;1871142;75;21520;-89
2021/08/14 04:26:12;;;;;;;8.58;6.35;;;;;;;9.49;100.00;93972.40;1872431;74;21007;-87
2021/08/14 04:28:41;;;;;;;8.53;7.35;;;;;;;9.48;100.00;93974.92;1788956;77;21097;-87
2021/08/14 04:31:07;;;;;;;7.25;5.42;;;;;;;9.55;100.00;93972.82;1773164;79;21093;-89
2021/08/14 04:33:33;;;;;;;6.95;5.95;;;;;;;9.84;100.00;93974.61;1856670;74;21034;-90
2021/08/14 04:36:01;;;;;;;8.28;6.50;;;;;;;10.16;100.00;93972.14;1869621;75;20995;-88
2021/08/14 04:38:30;;;;;;;11.00;6.10;;;;;;;10.42;100.00;93965.72;1889660;74;21120;-88
2021/08/14 04:40:59;;;;;;;5.92;5.28;;;;;;;10.61;100.00;93963.29;1765812;79;21018;-88
2021/08/14 04:43:27;;;;;;;7.15;5.03;;;;;;;10.76;99.61;93967.44;1783160;77;21028;-88
2021/08/14 04:45:57;;;;;;;5.12;4.62;;;;;;;10.80;98.29;93949.19;1799982;76;21093;-87
2021/08/14 04:48:23;;;;;;;4.55;4.15;;;;;;;10.93;98.31;93954.46;1770669;77;22224;-87
2021/08/14 04:50:50;;;;;;;5.75;4.92;;;;;;;11.29;98.47;93960.02;1817754;74;21085;-87
2021/08/14 04:53:16;;;;;;;5.65;4.90;;;;;;;11.79;97.90;93955.38;1874998;74;21050;-88
2021/08/14 04:55:45;;;;;;;6.17;4.70;;;;;;;12.29;96.14;93955.94;1838005;75;21156;-88
2021/08/14 04:58:13;;;;;;;7.58;5.37;;;;;;;12.63;93.49;93958.97;1856781;75;21077;-88
2021/08/14 05:00:41;;;;;;;7.28;6.53;;;;;;;12.81;91.57;93954.23;1876389;74;21049;-89
2021/08/14 05:03:07;;;;;;;7.67;5.70;;;;;;;12.95;90.24;93951.27;1874517;74;21113;-87
2021/08/14 05:05:34;;;;;;;6.65;5.85;;;;;;;13.05;89.28;93948.48;1871362;74;21120;-87
2021/08/14 05:08:00;;;;;;;6.83;6.20;;;;;;;13.19;88.21;93950.34;1875023;74;21082;-88
2021/08/14 05:10:27;;;;;;;6.05;5.45;;;;;;;13.29;87.71;93952.28;1871790;75;21003;-86
2021/08/14 05:12:55;;;;;;;6.03;5.42;;;;;;;13.46;87.16;93952.56;1852859;75;21399;-88
2021/08/14 05:15:24;;;;;;;6.03;5.42;;;;;;;13.73;86.65;93950.06;1855168;74;21586;-88
2021/08/14 05:17:52;;;;;;;6.53;5.90;;;;;;;13.99;85.08;93958.22;1827957;74;21582;-88
2021/08/14 05:20:18;;;;;;;8.13;5.50;;;;;;;14.06;83.64;93948.00;1866932;74;21053;-88
2021/08/14 05:22:46;;;;;;;6.20;5.58;;;;;;;14.06;83.17;93954.06;1874283;74;21007;-88
2021/08/14 05:25:15;;;;;;;7.25;5.72;;;;;;;13.99;82.68;93948.65;1876882;74;21081;-90
2021/08/14 05:27:41;;;;;;;6.65;5.17;;;;;;;13.92;82.77;93942.67;1801804;77;21581;-88
2021/08/14 05:30:09;;;;;;;7.90;6.28;;;;;;;13.98;83.33;93943.78;1813953;77;21372;-88
2021/08/14 05:32:36;;;;;;;7.37;6.30;;;;;;;14.23;83.78;93942.20;1820095;77;21493;-89
2021/08/14 05:35:03;;;;;;;7.67;5.60;;;;;;;14.64;83.14;93942.02;1799004;77;21336;-89
2021/08/14 05:37:30;;;;;;;6.83;5.60;;;;;;;15.17;81.61;93937.84;1798776;77;21789;-88
2021/08/14 05:39:56;;;;;;;7.75;5.45;;;;;;;15.68;78.72;93936.77;1878752;73;21077;-89
2021/08/14 05:42:22;;;;;;;7.87;5.50;;;;;;;16.19;77.15;93935.36;1851755;74;21524;-90
2021/08/14 05:44:49;;;;;;;7.42;5.90;;;;;;;16.66;75.52;93929.22;1803871;77;21607;-87
2021/08/14 05:47:17;;;;;;;5.75;5.22;;;;;;;16.84;73.94;93928.11;1802436;77;21430;-89
2021/08/14 05:49:44;;;;;;;6.42;5.12;;;;;;;16.79;73.72;93934.11;1862627;74;21077;-89
2021/08/14 05:52:10;;;;;;;6.22;5.58;;;;;;;16.71;73.52;93928.72;1834609;74;21887;-89
2021/08/14 05:54:38;;;;;;;7.03;6.00;;;;;;;16.66;74.43;93934.70;1827655;75;21072;-88
2021/08/14 05:57:06;;;;;;;5.85;5.25;;;;;;;16.66;75.02;93938.83;1791995;78;21173;-89
2021/08/14 05:59:35;;;;;;;7.50;5.45;;;;;;;16.68;75.34;93933.67;1736670;79;21075;-89
2021/08/14 06:02:03;;;;;;;6.15;5.28;;;;;;;16.83;74.49;93932.06;1795392;77;21049;-89
2021/08/14 06:04:31;;;;;;;5.50;5.00;;;;;;;17.14;74.38;93925.73;1804375;76;21303;-88
2021/08/14 06:06:58;;;;;;;7.42;5.05;;;;;;;17.59;73.42;93920.42;1876366;74;21037;-89
2021/08/14 06:09:25;;;;;;;8.30;5.55;;;;;;;18.05;71.29;93926.06;1799460;76;20986;-88
2021/08/14 06:11:52;;;;;;;5.85;5.25;;;;;;;18.33;69.08;93917.10;1851783;75;21540;-87
2021/08/14 06:14:19;;;;;;;6.47;4.87;;;;;;;18.49;67.65;93921.03;1810507;77;21041;-88
2021/08/14 06:16:47;;;;;;;6.70;5.37;;;;;;;18.59;67.24;93918.61;1800521;76;21401;-87
2021/08/14 06:19:14;;;;;;;6.30;5.42;;;;;;;18.69;65.55;93918.33;1833529;75;21014;-86
2021/08/14 06:21:40;;;;;;;6.05;5.45;;;;;;;18.88;65.84;93913.91;1812001;77;21057;-86
2021/08/14 06:24:07;;;;;;;7.78;5.70;;;;;;;19.02;65.00;93921.58;1804951;78;21102;-85
2021/08/14 06:26:33;;;;;;;6.47;5.00;;;;;;;18.99;65.11;93918.32;1832875;75;21129;-89
2021/08/14 06:29:00;;;;;;;8.95;5.22;;;;;;;18.96;65.20;93921.97;1797162;77;21806;-89
2021/08/14 06:31:26;;;;;;;7.40;6.40;;;;;;;18.86;65.55;93922.42;1831666;74;21678;-87
2021/08/14 06:33:53;;;;;;;7.17;5.65;;;;;;;18.71;65.33;93922.04;1804821;76;20975;-86
2021/08/14 06:36:19;;;;;;;6.58;5.20;;;;;;;18.62;66.18;93917.74;1885131;74;21616;-89
2021/08/14 06:38:45;;;;;;;6.22;5.40;;;;;;;18.65;66.34;93917.65;1877323;74;21006;-87
2021/08/14 06:41:13;;;;;;;5.87;5.28;;;;;;;18.82;65.87;93914.25;1882039;74;46965;-87
2021/08/14 06:43:39;;;;;;;7.00;5.47;;;;;;;19.01;65.70;93920.05;1826397;74;21062;-88
2021/08/14 06:46:05;;;;;;;7.50;5.28;;;;;;;19.19;66.09;93914.80;1801867;77;21907;-89
2021/08/14 06:48:35;;;;;;;5.97;5.22;;;;;;;19.43;65.05;93915.27;1795225;74;21053;-87
2021/08/14 06:51:03;;;;;;;6.92;5.25;;;;;;;19.67;63.98;93908.87;1879247;74;21069;-89
2021/08/14 06:55:45;;;;;;;6.35;5.72;;;;;;;20.19;63.23;93909.57;1865042;75;23036;-88
2021/08/14 06:58:12;;;;;;;6.75;5.15;;;;;;;20.37;62.29;93912.52;1800745;77;21052;-87
2021/08/14 07:00:40;;;;;;;6.53;5.80;;;;;;;20.47;61.88;93907.86;1823213;77;21122;-87
2021/08/14 07:03:08;;;;;;;7.00;5.22;;;;;;;20.40;61.95;93904.72;1771438;78;21133;-87
2021/08/14 07:05:40;;;;;;;5.45;4.92;;;;;;;20.31;61.93;93901.86;1734122;77;21133;-87
2021/08/14 07:08:07;;;;;;;5.80;5.22;;;;;;;20.21;62.30;93907.92;1791540;78;21054;-87
2021/08/14 07:10:35;;;;;;;5.35;4.85;;;;;;;20.09;62.63;93902.59;1818662;77;21455;-88
2021/08/14 07:13:02;;;;;;;5.90;4.90;;;;;;;20.00;62.94;93899.72;1805291;77;22017;-91
2021/08/14 07:15:31;;;;;;;5.97;5.33;;;;;;;19.89;63.28;93900.05;1802954;76;21037;-89
2021/08/14 07:17:59;;;;;;;6.75;5.50;;;;;;;19.83;63.92;93901.08;1812208;76;21068;-87
2021/08/14 07:20:26;;;;;;;8.25;5.70;;;;;;;19.76;64.42;93898.54;1837324;75;21151;-90
2021/08/14 07:22:57;;;;;;;6.33;5.28;;;;;;;19.71;64.73;93903.21;1766700;79;21108;-89
2021/08/14 07:25:24;;;;;;;6.00;5.12;;;;;;;19.70;65.81;93896.92;1745374;80;21077;-88
2021/08/14 07:27:51;;;;;;;7.15;5.28;;;;;;;19.69;65.13;93894.63;1728841;80;21074;-87
2021/08/14 07:30:21;;;;;;;6.87;5.33;;;;;;;19.71;66.02;93888.84;1746824;80;21507;-88
2021/08/14 07:32:47;;;;;;;7.33;5.53;;;;;;;19.73;65.31;93887.77;1759569;80;21109;-89
2021/08/14 07:35:14;;;;;;;6.35;5.75;;;;;;;19.76;64.84;93888.88;1820391;77;20938;-88
2021/08/14 07:37:48;;;;;;;5.60;4.90;;;;;;;19.79;65.05;93888.00;1783120;77;21065;-89
2021/08/14 07:40:23;;;;;;;6.85;5.95;;;;;;;19.80;65.18;93885.41;1770526;79;21469;-89
2021/08/14 07:42:50;;;;;;;6.03;5.25;;;;;;;19.84;65.04;93885.45;1747664;79;21031;-87
2021/08/14 07:45:19;;;;;;;7.67;5.60;;;;;;;19.87;65.00;93881.04;1760103;79;21523;-90
2021/08/14 07:47:48;;;;;;;7.00;5.30;;;;;;;19.96;64.57;93876.22;1785927;78;21120;-87
2021/08/14 07:50:23;;;;;;;6.92;5.30;;;;;;;20.07;65.50;93877.41;1754349;79;21085;-89
2021/08/14 07:52:49;;;;;;;;;;;;;;;20.16;65.74;93873.98;1764307;80;21615;-87
2021/08/14 07:55:16;;;;;;;7.67;5.60;;;;;;;20.30;65.31;93871.33;1841868;76;20237;-89
2021/08/14 07:57:45;;;;;;;7.22;5.30;;;;;;;20.41;64.32;93872.34;1832038;76;21088;-89
2021/08/14 08:00:13;;;;;;;5.90;5.12;;;;;;;20.50;63.97;93865.56;1790621;78;21080;-89
2021/08/14 08:02:40;;;;;;;5.90;5.35;;;;;;;20.60;64.40;93869.31;1838486;76;21066;-88
2021/08/14 08:05:08;;;;;;;5.72;5.20;;;;;;;20.70;62.65;93872.16;1845722;76;21606;-88
2021/08/14 08:07:35;;;;;;;5.67;5.12;;;;;;;20.78;63.19;93869.30;1824223;76;21072;-88
2021/08/14 08:10:05;;;;;;;14.43;5.55;;;;;;;20.87;63.47;93872.11;1823033;77;21378;-88
2021/08/14 08:12:31;;;;;;;6.53;5.90;;;;;;;20.94;62.78;93865.56;1825555;77;21139;-88
2021/08/14 08:14:59;;;;;;;6.35;4.83;;;;;;;21.00;62.81;93864.53;1824696;75;21282;-89
2021/08/14 08:17:27;;;;;;;7.50;5.85;;;;;;;21.10;62.17;93866.76;1849738;76;21217;-89
2021/08/14 08:19:53;;;;;;;7.45;5.45;;;;;;;21.18;62.86;93871.41;1841946;75;21028;-86
2021/08/14 08:22:20;;;;;;;7.58;4.83;;;;;;;21.26;62.16;93866.53;1816368;77;21080;-88
2021/08/14 08:24:47;;;;;;;6.30;5.30;;;;;;;21.32;60.42;93863.93;1807441;78;21021;-87
2021/08/14 08:27:14;;;;;;;5.85;5.25;;;;;;;21.37;60.55;93864.01;1801644;78;21111;-87
2021/08/14 08:29:40;;;;;;;6.30;4.33;;;;;;;21.43;58.85;93863.55;1800679;78;21123;-88
2021/08/14 08:32:07;;;;;;;5.33;4.83;;;;;;;21.49;58.49;93861.13;1835597;75;21589;-88
2021/08/14 08:34:34;;;;;;;5.62;4.87;;;;;;;21.57;58.64;93859.63;1812374;77;21108;-87
2021/08/14 08:37:03;;;;;;;5.17;4.67;;;;;;;21.65;58.37;93856.58;1804933;78;21570;-87
2021/08/14 08:39:31;;;;;;;5.00;4.50;;;;;;;21.76;57.50;93859.70;1811439;76;21122;-87
2021/08/14 08:41:59;;;;;;;5.53;4.37;;;;;;;21.83;57.05;93856.64;1834723;75;21079;-87
2021/08/14 08:44:25;;;;;;;7.83;4.30;;;;;;;21.90;57.47;93854.98;1833760;76;21578;-86
2021/08/14 08:46:52;;;;;;;4.83;4.28;;;;;;;21.98;56.80;93852.07;1843017;75;21021;-88
2021/08/14 08:49:23;;;;;;;5.78;4.17;;;;;;;22.05;55.30;93846.86;1818186;75;21085;-88
2021/08/14 08:51:57;;;;;;;7.00;4.62;;;;;;;22.13;55.17;93845.95;1788603;78;21276;-88
2021/08/14 08:54:21;;;;;;;4.78;4.12;;;;;;;22.24;55.28;93844.92;1767344;78;21687;-88
2021/08/14 08:56:49;;;;;;;6.65;3.83;;;;;;;22.32;55.95;93842.61;1772227;78;21049;-88
2021/08/14 08:59:16;;;;;;;5.75;4.33;;;;;;;22.40;56.15;93835.53;1753396;79;21121;-87
2021/08/14 09:01:42;;;;;;;5.53;4.30;;;;;;;22.47;54.70;93832.47;1767836;80;21062;-87
2021/08/14 09:04:29;;;;;;;4.25;3.85;;;;;;;22.52;53.64;93833.22;1802856;75;21410;-87
2021/08/14 09:06:57;;;;;;;4.65;4.25;;;;;;;22.57;53.38;93831.23;1838325;76;21571;-88
2021/08/14 09:09:26;;;;;;;5.75;4.17;;;;;;;22.62;52.56;93831.23;1838490;75;21587;-87
2021/08/14 09:14:25;;;;;;;5.58;4.10;;;;;;;22.71;52.72;93833.98;1772463;78;21074;-88
2021/08/14 09:17:07;;;;;;;4.10;3.80;;;;;;;22.77;52.23;93832.91;1789472;75;22144;-89
2021/08/14 09:19:33;;;;;;;8.58;4.33;;;;;;;22.86;52.34;93829.97;1795283;77;21961;-89
2021/08/14 09:22:13;;;;;;;5.58;4.67;;;;;;;22.93;52.12;93819.35;1799327;77;21096;-87
2021/08/14 09:24:39;;;;;;;4.37;3.67;;;;;;;22.98;51.24;93814.59;1754992;79;21032;-88
2021/08/14 09:27:06;;;;;;;4.58;4.20;;;;;;;23.04;52.14;93816.09;1762792;79;21140;-87
2021/08/14 09:29:39;;;;;;;5.08;4.22;;;;;;;23.08;52.15;93816.70;1813346;76;21136;-89
2021/08/14 09:32:13;;;;;;;4.62;4.12;;;;;;;23.14;51.64;93805.14;1740992;77;21051;-88
2021/08/14 09:34:43;;;;;;;4.42;3.98;;;;;;;23.22;51.27;93812.52;1759810;79;21062;-90
2021/08/14 09:37:13;;;;;;;6.15;4.45;;;;;;;23.26;51.71;93810.34;1762252;78;21105;-88
2021/08/14 09:39:57;;;;;;;4.97;4.47;;;;;;;23.30;51.00;93810.17;1742495;80;21086;-89
2021/08/14 09:42:24;;;;;;;6.15;4.37;;;;;;;23.34;50.67;93805.99;1754081;80;21130;-89
2021/08/14 09:47:36;;;;;;;5.58;4.00;;;;;;;23.41;48.66;93801.50;1828042;76;21078;-89
2021/08/14 09:50:04;;;;;;;4.40;4.00;;;;;;;23.49;50.15;93798.53;1824229;76;21214;-86
2021/08/14 09:52:30;;;;;;;4.22;3.90;;;;;;;23.56;47.77;93800.20;1830077;76;21057;-89
2021/08/14 09:54:57;;;;;;;6.33;3.90;;;;;;;23.56;47.79;93796.66;1825276;76;21583;-87
2021/08/14 09:57:24;;;;;;;6.28;4.90;;;;;;;23.59;48.42;93790.17;1810239;76;21059;-88
2021/08/14 09:59:51;;;;;;;5.37;4.50;;;;;;;23.63;47.53;93794.31;1794414;78;21666;-87
2021/08/14 10:02:28;;;;;;;7.08;4.92;;;;;;;23.66;48.47;93789.84;1783961;78;21107;-89
2021/08/14 10:04:58;;;;;;;5.90;4.15;;;;;;;23.70;48.72;93777.34;1827696;75;21100;-89
2021/08/14 10:07:25;;;;;;;4.85;4.40;;;;;;;23.72;46.44;93778.25;1837309;75;21455;-88
2021/08/14 10:09:53;;;;;;;5.33;4.37;;;;;;;23.70;46.94;93783.52;1830792;75;21118;-87
2021/08/14 10:12:19;;;;;;;5.37;4.03;;;;;;;23.74;47.50;93780.70;1813859;77;21036;-87
2021/08/14 10:14:49;;;;;;;5.20;4.22;;;;;;;23.78;49.20;93774.22;1818255;76;21076;-88
2021/08/14 10:17:21;;;;;;;4.00;3.60;;;;;;;23.82;47.06;93777.59;1813762;76;21022;-88
2021/08/14 10:19:46;;;;;;;7.83;4.08;;;;;;;23.85;46.44;93778.03;1793472;78;21524;-87
2021/08/14 10:22:15;;;;;;;7.37;4.60;;;;;;;23.84;46.31;93773.08;1793960;77;21067;-87
2021/08/14 10:24:43;;;;;;;5.55;4.80;;;;;;;23.82;46.22;93766.48;1814570;76;21249;-87
2021/08/14 10:27:16;;;;;;;4.85;4.45;;;;;;;23.81;46.68;93758.77;1794901;78;21038;-88
2021/08/14 10:29:56;;;;;;;4.62;4.22;;;;;;;23.81;47.60;93756.00;1803915;78;21053;-88
2021/08/14 10:32:38;;;;;;;6.08;4.15;;;;;;;23.84;48.29;93755.66;1805863;78;22196;-91
2021/08/14 10:35:28;;;;;;;4.53;4.12;;;;;;;23.89;48.42;93753.01;1803981;78;21087;-87
2021/08/14 10:37:56;;;;;;;3.87;3.58;;;;;;;23.90;50.84;93755.92;1802593;78;21516;-87
2021/08/14 10:40:22;;;;;;;4.47;4.08;;;;;;;23.92;48.00;93756.83;1799300;78;21045;-88
2021/08/14 10:42:58;;;;;;;4.70;4.22;;;;;;;23.85;48.00;93759.98;1800530;78;21051;-87
2021/08/14 10:48:04;;;;;;;4.70;4.30;;;;;;;23.89;49.96;93759.19;1724433;81;22022;-87
2021/08/14 10:50:36;;;;;;;4.55;4.08;;;;;;;23.88;49.16;93756.24;1800611;77;21568;-89
2021/08/14 10:53:16;;;;;;;4.15;3.83;;;;;;;23.83;48.18;93748.57;1823408;77;21093;-88
2021/08/14 10:55:48;;;;;;;4.70;4.30;;;;;;;23.78;47.05;93752.77;1789046;77;21050;-88
2021/08/14 10:58:30;;;;;;;5.25;4.33;;;;;;;23.76;46.93;93748.30;1794871;77;21077;-87
2021/08/14 11:01:11;;;;;;;4.42;4.03;;;;;;;23.75;48.26;93738.44;1797037;77;21656;-87
2021/08/14 11:03:41;;;;;;;4.20;3.83;;;;;;;23.77;47.07;93744.90;1798761;77;21022;-86
2021/08/14 11:06:30;;;;;;;4.90;4.17;;;;;;;23.77;48.38;93737.36;1738066;81;21100;-89
2021/08/14 11:09:22;;;;;;;4.40;4.03;;;;;;;23.84;48.27;93738.38;1751947;80;21092;-87
2021/08/14 11:12:00;;;;;;;5.05;4.58;;;;;;;23.98;48.34;93734.12;1789075;78;21571;-87
2021/08/14 11:14:43;;;;;;;4.17;3.77;;;;;;;24.05;49.05;93733.00;1790176;78;21074;-88
2021/08/14 11:17:11;;;;;;;4.40;4.00;;;;;;;24.09;48.42;93728.78;1784564;77;21555;-87
2021/08/14 11:19:55;;;;;;;5.75;4.08;;;;;;;24.17;48.28;93722.24;1766558;78;21122;-87
2021/08/14 11:22:35;;;;;;;4.08;3.70;;;;;;;24.26;48.08;93726.35;1755267;79;21226;-88
2021/08/14 11:25:06;;;;;;;31.17;5.03;;;;;;;24.28;48.04;93725.86;1778884;78;21470;-86
2021/08/14 11:27:34;;;;;;;5.22;4.10;;;;;;;24.31;48.09;93730.47;1802563;77;21061;-88
2021/08/14 11:30:09;;;;;;;6.37;3.72;;;;;;;24.34;46.94;93724.73;1823438;76;21040;-88
2021/08/14 11:32:36;;;;;;;3.98;3.67;;;;;;;24.37;45.33;93724.38;1812646;76;21071;-89
2021/08/14 11:35:05;;;;;;;4.65;4.03;;;;;;;24.41;46.47;93723.00;1773859;79;22096;-88
2021/08/14 11:37:54;;;;;;;4.60;3.95;;;;;;;24.50;48.71;93719.98;1766987;79;21659;-89
2021/08/14 11:40:26;;;;;;;4.42;4.00;;;;;;;24.62;48.77;93722.48;1764018;79;21070;-87
2021/08/14 11:43:14;;;;;;;4.95;4.45;;;;;;;24.71;47.07;93718.23;1712653;82;21960;-88
2021/08/14 11:45:42;;;;;;;5.45;4.17;;;;;;;24.75;47.70;93717.25;1714535;81;21133;-88
2021/08/14 11:48:12;;;;;;;5.30;4.20;;;;;;;24.83;46.82;93712.23;1768936;78;21124;-88
2021/08/14 11:50:47;;;;;;;4.65;4.20;;;;;;;24.88;46.29;93714.33;1761559;80;21865;-87